Sachse's Hourly Summary for Thursday, July 5, 2018
Hour Temp
(f)
RH
(%)
Solar Rad.
(MJ/m2)
Rainfall
(in)
Wind
(mph)
7/5/2018 12:00 AM 79 68 0 0 5.77
7/5/2018 1:00 AM 77 71 0 0 3.48
7/5/2018 2:00 AM 72 73 0 0 0.14
7/5/2018 3:00 AM 73 81 0 0 0
7/5/2018 4:00 AM 73 83 0 0 0
7/5/2018 5:00 AM 72 86 0 0 0
7/5/2018 6:00 AM 72 87 0 0 0
7/5/2018 7:00 AM 72 87 0.03 0 0
7/5/2018 8:00 AM 75 74 0.39 0 0.14
7/5/2018 9:00 AM 79 68 1.03 0 0.44
7/5/2018 10:00 AM 82 62 1.79 0 0.49
7/5/2018 11:00 AM 84 54 2.24 0 1.47
7/5/2018 12:00 PM 87 51 2.74 0 2.3
7/5/2018 1:00 PM 89 48 2.73 0 2.99
7/5/2018 2:00 PM 91 43 2.82 0 2.99
7/5/2018 3:00 PM 93 40 3.04 0 3.11
7/5/2018 4:00 PM 94 37 2.27 0 3.68
7/5/2018 5:00 PM 95 36 2.1 0 4.69
7/5/2018 6:00 PM 95 32 1.35 0 4.41
7/5/2018 7:00 PM 93 37 0.64 0 5.37
7/5/2018 8:00 PM 89 42 0.27 0 4.89
7/5/2018 9:00 PM 85 60 0.05 0 2.19
7/5/2018 10:00 PM 84 62 0 0 1.65
7/5/2018 11:00 PM 83 63 0 0 1.63
Data Summary 82 60 23.49 0.00 2.16